createdAt,value
2017-12-29T00:00:38.643Z,2.20
2017-12-29T00:01:40.710Z,2.03
2017-12-29T00:02:42.735Z,2.50
2017-12-29T00:03:44.031Z,2.50
2017-12-29T00:04:45.334Z,2.10
2017-12-29T00:05:47.357Z,2.40
2017-12-29T00:06:48.675Z,2.40
2017-12-29T00:07:49.955Z,2.63
2017-12-29T00:08:51.999Z,2.70
2017-12-29T00:09:54.607Z,2.63
2017-12-29T00:10:56.131Z,2.93
2017-12-29T00:11:57.489Z,2.80
2017-12-29T00:12:58.775Z,2.97
2017-12-29T00:14:00.053Z,3.20
2017-12-29T00:15:01.351Z,3.20
2017-12-29T00:16:02.666Z,2.87
2017-12-29T00:17:04.239Z,3.47
2017-12-29T00:18:06.267Z,3.27
2017-12-29T00:19:07.561Z,3.30
2017-12-29T00:20:08.867Z,3.27
2017-12-29T00:21:10.895Z,3.00
2017-12-29T00:22:12.490Z,3.50
2017-12-29T00:23:13.786Z,3.00
2017-12-29T00:24:15.097Z,3.13
2017-12-29T00:25:16.379Z,2.83
2017-12-29T00:26:18.397Z,3.20
2017-12-29T00:27:19.739Z,2.90
2017-12-29T00:28:21.030Z,3.27
2017-12-29T00:29:22.323Z,3.33
2017-12-29T00:30:23.630Z,2.70
2017-12-29T00:31:24.935Z,3.20
2017-12-29T00:32:26.251Z,3.20
2017-12-29T00:33:28.283Z,3.43
2017-12-29T00:34:29.575Z,2.90
2017-12-29T00:35:30.875Z,3.43
2017-12-29T00:36:32.903Z,3.53
2017-12-29T00:37:34.242Z,3.03
2017-12-29T00:38:35.541Z,2.93
2017-12-29T00:39:36.857Z,2.93
2017-12-29T00:40:38.647Z,3.17
2017-12-29T00:41:39.935Z,2.73
2017-12-29T00:42:41.255Z,2.70
2017-12-29T00:43:43.291Z,2.93
2017-12-29T00:44:44.585Z,3.00
2017-12-29T00:45:45.875Z,3.00
2017-12-29T00:46:47.915Z,2.47
2017-12-29T00:47:49.233Z,3.07
2017-12-29T00:48:50.515Z,3.23
2017-12-29T00:49:52.549Z,3.30
2017-12-29T00:50:53.839Z,3.40
2017-12-29T00:51:55.147Z,3.30
2017-12-29T00:52:56.459Z,3.17
2017-12-29T00:53:57.739Z,3.50
2017-12-29T00:54:59.035Z,2.60
2017-12-29T00:56:00.315Z,2.83
2017-12-29T00:57:01.602Z,2.87
2017-12-29T00:58:03.190Z,3.27
2017-12-29T00:59:04.458Z,3.40
2017-12-29T01:00:05.751Z,2.83
2017-12-29T01:01:07.039Z,3.20
2017-12-29T01:02:08.323Z,2.67
2017-12-29T01:03:09.991Z,2.50
2017-12-29T01:04:11.271Z,3.00
2017-12-29T01:05:12.555Z,3.13
2017-12-29T01:06:20.673Z,3.47
2017-12-29T01:07:22.699Z,2.53
2017-12-29T01:08:24.013Z,2.57
2017-12-29T01:09:25.347Z,2.70
2017-12-29T01:10:27.374Z,3.17
2017-12-29T01:11:28.695Z,3.37
2017-12-29T01:12:30.006Z,2.87
2017-12-29T01:13:31.316Z,2.80
2017-12-29T01:14:33.347Z,3.13
2017-12-29T01:15:35.381Z,3.00
2017-12-29T01:16:36.655Z,3.07
2017-12-29T01:17:38.687Z,3.30
2017-12-29T01:18:40.251Z,3.00
2017-12-29T01:19:42.266Z,2.97
2017-12-29T01:20:43.555Z,3.13
2017-12-29T01:21:44.861Z,2.80
2017-12-29T01:22:46.163Z,3.13
2017-12-29T01:23:47.726Z,2.77
2017-12-29T01:24:49.017Z,2.90
2017-12-29T01:25:50.311Z,2.80
2017-12-29T01:26:51.610Z,3.00
2017-12-29T01:27:52.879Z,3.40
2017-12-29T01:28:54.931Z,2.73
2017-12-29T01:29:56.223Z,2.73
2017-12-29T01:30:57.517Z,2.90
2017-12-29T01:31:59.562Z,3.40
2017-12-29T01:33:00.846Z,3.20
2017-12-29T01:34:02.403Z,3.10
2017-12-29T01:35:03.695Z,2.70
2017-12-29T01:36:05.739Z,2.73
2017-12-29T01:37:07.777Z,2.70
2017-12-29T01:38:09.067Z,3.10
2017-12-29T01:39:10.638Z,2.73
2017-12-29T01:40:11.941Z,2.90
2017-12-29T01:41:13.226Z,3.00
2017-12-29T01:42:14.519Z,3.10
2017-12-29T01:43:15.812Z,3.07
2017-12-29T01:44:17.127Z,3.37
2017-12-29T01:45:18.456Z,3.00
2017-12-29T01:46:20.483Z,3.17
2017-12-29T01:47:21.771Z,3.03
2017-12-29T01:48:23.073Z,2.73
2017-12-29T01:49:24.375Z,2.90
2017-12-29T01:50:25.667Z,2.80
2017-12-29T01:51:26.979Z,3.30
2017-12-29T01:52:28.267Z,3.40
2017-12-29T01:53:30.291Z,3.13
2017-12-29T01:54:31.893Z,2.73
2017-12-29T01:55:33.211Z,3.00
2017-12-29T01:56:35.235Z,3.23
2017-12-29T01:57:36.525Z,3.10
2017-12-29T01:58:37.810Z,2.90
2017-12-29T01:59:39.401Z,2.80
2017-12-29T02:00:40.723Z,3.37
2017-12-29T02:01:42.029Z,2.90
2017-12-29T02:02:43.314Z,3.13
2017-12-29T02:03:44.615Z,3.00
2017-12-29T02:04:46.931Z,2.60
2017-12-29T02:05:48.223Z,3.00
2017-12-29T02:06:50.251Z,3.10
2017-12-29T02:07:51.545Z,3.20
2017-12-29T02:08:52.831Z,2.90
2017-12-29T02:09:55.135Z,3.07
2017-12-29T02:10:56.405Z,3.07
2017-12-29T02:11:57.787Z,2.87
2017-12-29T02:12:59.069Z,2.57
2017-12-29T02:14:00.371Z,2.60
2017-12-29T02:15:01.673Z,2.90
2017-12-29T02:16:03.711Z,2.63
2017-12-29T02:17:05.006Z,2.40
2017-12-29T02:18:06.293Z,2.67
2017-12-29T02:19:07.575Z,2.63
2017-12-29T02:20:09.095Z,2.40
2017-12-29T02:21:11.151Z,2.43
2017-12-29T02:22:13.175Z,2.63
2017-12-29T02:23:14.465Z,2.53
2017-12-29T02:24:15.763Z,3.07
2017-12-29T02:25:18.083Z,2.73
2017-12-29T02:26:20.111Z,2.70
2017-12-29T02:27:21.394Z,2.83
2017-12-29T02:28:22.683Z,2.50
2017-12-29T02:29:23.986Z,2.70
2017-12-29T02:30:26.283Z,2.47
2017-12-29T02:31:27.583Z,2.60
2017-12-29T02:32:29.611Z,2.37
2017-12-29T02:33:30.884Z,2.60
2017-12-29T02:34:32.927Z,2.27
2017-12-29T02:35:35.320Z,2.67
2017-12-29T02:36:36.603Z,2.47
2017-12-29T02:37:37.907Z,2.23
2017-12-29T02:38:39.193Z,2.30
2017-12-29T02:39:41.233Z,2.57
2017-12-29T02:40:42.788Z,2.73
2017-12-29T02:41:44.855Z,2.60
2017-12-29T02:42:46.891Z,2.90
2017-12-29T02:43:48.179Z,2.60
2017-12-29T02:44:49.467Z,2.70
2017-12-29T02:45:51.047Z,2.57
2017-12-29T02:46:52.346Z,2.33
2017-12-29T02:47:54.387Z,2.40
2017-12-29T02:48:55.707Z,2.30
2017-12-29T02:49:56.995Z,3.07
2017-12-29T02:50:58.673Z,2.47
2017-12-29T02:51:59.983Z,2.33
2017-12-29T02:53:01.279Z,2.50
2017-12-29T02:54:02.607Z,2.50
2017-12-29T02:55:03.911Z,1.90
2017-12-29T02:56:05.212Z,2.30
2017-12-29T02:57:07.266Z,2.50
2017-12-29T02:58:10.203Z,2.40
2017-12-29T02:59:11.495Z,2.50
2017-12-29T03:00:12.771Z,2.40
2017-12-29T03:01:14.335Z,2.10
2017-12-29T03:02:15.647Z,2.83
2017-12-29T03:03:16.946Z,2.90
2017-12-29T03:04:18.247Z,2.60
2017-12-29T03:05:19.567Z,2.70
2017-12-29T03:06:21.950Z,3.43
2017-12-29T03:07:23.981Z,2.90
2017-12-29T03:08:26.021Z,2.70
2017-12-29T03:09:27.314Z,2.60
2017-12-29T03:10:29.343Z,2.67
2017-12-29T03:11:30.643Z,2.60
2017-12-29T03:12:31.947Z,2.40
2017-12-29T03:13:33.981Z,2.10
2017-12-29T03:14:36.000Z,2.60
2017-12-29T03:15:37.295Z,2.33
2017-12-29T03:16:38.907Z,2.40
2017-12-29T03:17:40.172Z,2.23
2017-12-29T03:18:41.473Z,2.20
2017-12-29T03:19:42.763Z,2.57
2017-12-29T03:20:44.047Z,2.50
2017-12-29T03:21:45.387Z,2.30
2017-12-29T03:22:46.683Z,2.80
2017-12-29T03:23:47.979Z,2.60
2017-12-29T03:24:50.001Z,2.20
2017-12-29T03:25:51.291Z,2.43
2017-12-29T03:26:52.990Z,2.90
2017-12-29T03:27:54.255Z,2.43
2017-12-29T03:28:56.296Z,2.50
2017-12-29T03:29:58.351Z,2.50
2017-12-29T03:31:00.398Z,2.87
2017-12-29T03:32:02.803Z,2.37
2017-12-29T03:33:04.091Z,2.60
2017-12-29T03:34:05.375Z,2.70
2017-12-29T03:35:06.647Z,2.30
2017-12-29T03:36:07.937Z,2.83
2017-12-29T03:37:09.511Z,2.60
2017-12-29T03:38:10.807Z,2.30
2017-12-29T03:39:12.097Z,2.63
2017-12-29T03:40:13.377Z,2.77
2017-12-29T03:41:14.667Z,2.70
2017-12-29T03:42:16.268Z,2.40
2017-12-29T03:43:17.563Z,2.93
2017-12-29T03:44:18.871Z,2.63
2017-12-29T03:45:20.163Z,2.70
2017-12-29T03:46:21.455Z,2.33
2017-12-29T03:47:23.787Z,3.03
2017-12-29T03:48:25.079Z,2.50
2017-12-29T03:49:27.101Z,2.40
2017-12-29T03:50:28.416Z,3.13
2017-12-29T03:51:29.711Z,2.87
2017-12-29T03:52:31.089Z,2.60
2017-12-29T03:53:32.371Z,2.70
2017-12-29T03:54:33.655Z,3.00
2017-12-29T03:55:34.956Z,2.90
2017-12-29T03:56:37.003Z,3.10
2017-12-29T03:57:38.314Z,2.77
2017-12-29T03:58:39.603Z,2.70
2017-12-29T03:59:40.887Z,3.07
2017-12-29T04:00:42.227Z,2.50
2017-12-29T04:01:43.515Z,2.97
2017-12-29T04:02:45.087Z,2.50
2017-12-29T04:03:46.395Z,2.70
2017-12-29T04:04:47.681Z,2.53
2017-12-29T04:05:48.965Z,2.77
2017-12-29T04:06:50.268Z,3.00
2017-12-29T04:07:51.861Z,2.57
2017-12-29T04:08:53.167Z,2.80
2017-12-29T04:09:55.215Z,2.33
2017-12-29T04:10:57.251Z,2.77
2017-12-29T04:11:58.554Z,2.40
2017-12-29T04:13:00.155Z,2.60
2017-12-29T04:14:02.168Z,2.47
2017-12-29T04:15:03.491Z,2.50
2017-12-29T04:16:04.767Z,2.33
2017-12-29T04:17:06.793Z,3.33
2017-12-29T04:18:08.355Z,3.10
2017-12-29T04:19:09.640Z,2.40
2017-12-29T04:20:10.923Z,2.97
2017-12-29T04:21:12.215Z,2.27
2017-12-29T04:22:13.505Z,2.17
2017-12-29T04:23:15.090Z,2.30
2017-12-29T04:24:16.380Z,2.10
2017-12-29T04:25:17.661Z,2.50
2017-12-29T04:26:18.964Z,2.53
2017-12-29T04:27:20.999Z,2.90
2017-12-29T04:28:22.607Z,2.73
2017-12-29T04:29:23.886Z,2.43
2017-12-29T04:30:25.180Z,2.90
2017-12-29T04:31:26.479Z,3.30
2017-12-29T04:32:28.508Z,2.90
2017-12-29T04:33:30.054Z,2.90
2017-12-29T04:34:31.360Z,2.70
2017-12-29T04:35:32.647Z,2.50
2017-12-29T04:36:34.667Z,2.20
2017-12-29T04:37:35.957Z,2.40
2017-12-29T04:38:37.521Z,2.60
2017-12-29T04:39:38.807Z,1.90
2017-12-29T04:40:40.827Z,2.60
2017-12-29T04:41:42.113Z,2.07
2017-12-29T04:42:43.399Z,2.40
2017-12-29T04:43:45.702Z,2.20
2017-12-29T04:44:47.739Z,2.10
2017-12-29T04:45:49.047Z,2.30
2017-12-29T04:46:50.335Z,2.10
2017-12-29T04:47:51.659Z,2.53
2017-12-29T04:49:00.675Z,2.33
2017-12-29T04:50:02.722Z,2.60
2017-12-29T04:51:04.022Z,2.40
2017-12-29T04:52:05.323Z,2.20
2017-12-29T04:53:06.627Z,2.53
2017-12-29T04:54:08.315Z,2.23
2017-12-29T04:55:09.600Z,2.10
2017-12-29T04:56:10.896Z,2.10
2017-12-29T04:57:12.179Z,2.30
2017-12-29T04:58:13.476Z,1.83
2017-12-29T04:59:15.041Z,2.63
2017-12-29T05:00:16.348Z,3.90
2017-12-29T05:01:17.626Z,3.03
2017-12-29T05:02:18.940Z,2.57
2017-12-29T05:03:20.246Z,2.40
2017-12-29T05:04:21.826Z,1.97
2017-12-29T05:05:23.864Z,2.33
2017-12-29T05:06:25.153Z,2.20
2017-12-29T05:07:27.195Z,1.70
2017-12-29T05:08:28.503Z,2.17
2017-12-29T05:09:29.833Z,1.90
2017-12-29T05:10:31.111Z,1.83
2017-12-29T05:11:33.127Z,2.10
2017-12-29T05:12:34.407Z,1.97
2017-12-29T05:13:36.484Z,2.00
2017-12-29T05:14:38.030Z,1.90
2017-12-29T05:15:39.330Z,1.60
2017-12-29T05:16:40.619Z,1.90
2017-12-29T05:17:41.908Z,1.63
2017-12-29T05:18:43.947Z,1.90
2017-12-29T05:19:45.511Z,1.50
2017-12-29T05:20:47.547Z,1.50
2017-12-29T05:21:48.852Z,1.60
2017-12-29T05:22:50.140Z,1.70
2017-12-29T05:23:52.168Z,1.50
2017-12-29T05:24:53.777Z,1.40
2017-12-29T05:25:55.071Z,1.40
2017-12-29T05:26:57.094Z,1.40
2017-12-29T05:27:58.387Z,1.37
2017-12-29T05:28:59.669Z,1.90
2017-12-29T05:30:01.277Z,1.87
2017-12-29T05:31:02.587Z,1.33
2017-12-29T05:32:03.911Z,1.50
2017-12-29T05:33:05.932Z,1.30
2017-12-29T05:34:07.218Z,1.50
2017-12-29T05:35:08.874Z,1.40
2017-12-29T05:36:10.160Z,1.40
2017-12-29T05:37:11.461Z,1.50
2017-12-29T05:38:12.744Z,1.77
2017-12-29T05:39:14.042Z,1.47
2017-12-29T05:40:15.669Z,1.47
2017-12-29T05:41:16.947Z,1.33
2017-12-29T05:42:18.267Z,1.20
2017-12-29T05:43:20.288Z,1.20
2017-12-29T05:44:21.589Z,1.53
2017-12-29T05:45:23.987Z,1.30
2017-12-29T05:46:25.276Z,1.40
2017-12-29T05:47:26.578Z,1.50
2017-12-29T05:48:27.864Z,1.30
2017-12-29T05:49:29.911Z,1.30
2017-12-29T05:50:31.972Z,1.30
2017-12-29T05:51:34.004Z,1.30
2017-12-29T05:52:35.321Z,1.43
2017-12-29T05:53:36.642Z,1.13
2017-12-29T05:54:37.921Z,1.27
2017-12-29T05:55:39.250Z,1.00
2017-12-29T05:56:40.531Z,1.30
2017-12-29T05:57:41.813Z,1.40
2017-12-29T05:58:43.114Z,1.43
2017-12-29T05:59:44.397Z,1.40
2017-12-29T06:00:45.734Z,1.10
2017-12-29T06:01:47.038Z,1.40
2017-12-29T06:02:48.342Z,1.30
2017-12-29T06:03:49.673Z,1.40
2017-12-29T06:04:51.703Z,1.10
2017-12-29T06:05:53.294Z,1.43
2017-12-29T06:06:54.584Z,1.40
2017-12-29T06:07:55.899Z,1.43
2017-12-29T06:08:57.186Z,1.20
2017-12-29T06:09:58.483Z,1.20
2017-12-29T06:11:00.051Z,1.33
2017-12-29T06:12:02.084Z,1.10
2017-12-29T06:13:03.371Z,1.40
2017-12-29T06:14:04.731Z,1.23
2017-12-29T06:15:06.011Z,1.57
2017-12-29T06:16:08.047Z,1.50
2017-12-29T06:17:09.342Z,1.10
2017-12-29T06:18:10.651Z,1.30
2017-12-29T06:19:12.687Z,1.60
2017-12-29T06:20:14.709Z,1.40
2017-12-29T06:21:16.257Z,1.50
2017-12-29T06:22:18.284Z,1.50
2017-12-29T06:23:19.563Z,1.40
2017-12-29T06:24:20.853Z,1.13
2017-12-29T06:25:22.113Z,1.30
2017-12-29T06:26:23.428Z,1.30
2017-12-29T06:27:24.767Z,1.20
2017-12-29T06:28:26.052Z,1.50
2017-12-29T06:29:27.347Z,1.10
2017-12-29T06:30:28.652Z,1.63
2017-12-29T06:31:29.965Z,1.30
2017-12-29T06:32:32.007Z,1.37
2017-12-29T06:33:33.316Z,1.10
2017-12-29T06:34:34.637Z,1.50
2017-12-29T06:35:35.923Z,1.50
2017-12-29T06:36:37.503Z,1.53
2017-12-29T06:37:38.819Z,1.80
2017-12-29T06:38:40.871Z,1.50
2017-12-29T06:39:42.927Z,1.50
2017-12-29T06:40:44.964Z,1.70
2017-12-29T06:41:46.553Z,1.43
2017-12-29T06:42:47.847Z,1.53
2017-12-29T06:43:49.136Z,1.47
2017-12-29T06:44:50.426Z,1.80
2017-12-29T06:45:52.466Z,2.10
2017-12-29T06:46:53.779Z,2.50
2017-12-29T06:47:55.085Z,3.40
2017-12-29T06:48:56.367Z,2.90
2017-12-29T06:49:57.647Z,2.20
2017-12-29T06:50:58.952Z,1.70
2017-12-29T06:52:00.284Z,1.40
2017-12-29T06:53:01.587Z,1.57
2017-12-29T06:54:02.908Z,1.40
2017-12-29T06:55:04.197Z,1.53
2017-12-29T06:56:06.243Z,1.30
2017-12-29T06:57:07.568Z,1.77
2017-12-29T06:58:08.852Z,1.67
2017-12-29T06:59:10.152Z,2.10
2017-12-29T07:00:11.471Z,2.10
2017-12-29T07:01:12.799Z,1.60
2017-12-29T07:02:14.367Z,1.50
2017-12-29T07:03:15.661Z,1.33
2017-12-29T07:04:16.947Z,1.30
2017-12-29T07:05:18.245Z,1.13
2017-12-29T07:06:19.539Z,1.20
2017-12-29T07:07:21.826Z,1.13
2017-12-29T07:08:23.107Z,1.10
2017-12-29T07:09:24.405Z,1.20
2017-12-29T07:10:25.675Z,1.17
2017-12-29T07:11:26.947Z,1.07
2017-12-29T07:12:29.248Z,1.30
2017-12-29T07:13:30.539Z,1.40
2017-12-29T07:14:32.621Z,1.00
2017-12-29T07:15:33.907Z,1.33
2017-12-29T07:16:35.191Z,1.20
2017-12-29T07:17:36.493Z,1.10
2017-12-29T07:18:38.543Z,1.13
2017-12-29T07:19:39.818Z,1.30
2017-12-29T07:20:41.126Z,1.33
2017-12-29T07:21:43.166Z,1.23
2017-12-29T07:22:44.754Z,1.30
2017-12-29T07:23:46.029Z,1.30
2017-12-29T07:24:47.331Z,1.30
2017-12-29T07:25:48.621Z,1.37
2017-12-29T07:26:50.650Z,1.40
2017-12-29T07:27:51.949Z,1.50
2017-12-29T07:28:53.247Z,1.23
2017-12-29T07:29:55.292Z,1.00
2017-12-29T07:30:56.587Z,1.20
2017-12-29T07:31:57.885Z,0.90
2017-12-29T07:33:00.196Z,1.10
2017-12-29T07:34:01.504Z,1.10
2017-12-29T07:35:02.795Z,1.13
2017-12-29T07:36:04.088Z,1.30
2017-12-29T07:37:05.387Z,1.20
2017-12-29T07:38:07.705Z,1.20
2017-12-29T07:39:09.011Z,1.07
2017-12-29T07:40:10.298Z,1.03
2017-12-29T07:41:11.612Z,1.10
2017-12-29T07:42:12.911Z,1.40
2017-12-29T07:43:14.220Z,1.10
2017-12-29T07:44:15.496Z,1.17
2017-12-29T07:45:16.784Z,1.20
2017-12-29T07:46:18.076Z,1.53
2017-12-29T07:47:19.407Z,1.50
2017-12-29T07:48:20.966Z,1.70
2017-12-29T07:49:22.254Z,1.60
2017-12-29T07:50:24.288Z,1.70
2017-12-29T07:51:25.573Z,1.30
2017-12-29T07:52:26.854Z,1.40
2017-12-29T07:53:28.159Z,1.10
2017-12-29T07:54:29.452Z,1.30
2017-12-29T07:55:31.467Z,1.33
2017-12-29T07:56:32.765Z,1.23
2017-12-29T07:57:34.066Z,1.13
2017-12-29T07:58:35.635Z,1.60
2017-12-29T07:59:36.916Z,1.00
2017-12-29T08:00:38.200Z,1.23
2017-12-29T08:01:40.247Z,1.27
2017-12-29T08:02:42.284Z,1.30
2017-12-29T08:03:43.587Z,1.10
2017-12-29T08:04:44.884Z,1.40
2017-12-29T08:05:46.908Z,1.40
2017-12-29T08:06:48.200Z,1.17
2017-12-29T08:07:50.490Z,1.30
2017-12-29T08:08:51.823Z,1.27
2017-12-29T08:09:53.114Z,1.30
2017-12-29T08:10:54.447Z,1.40
2017-12-29T08:11:55.718Z,1.00
2017-12-29T08:12:57.012Z,1.17
2017-12-29T08:13:59.307Z,1.03
2017-12-29T08:15:00.632Z,1.10
2017-12-29T08:16:01.919Z,1.30
2017-12-29T08:17:03.229Z,1.23
2017-12-29T08:18:04.526Z,1.23
2017-12-29T08:19:05.825Z,1.30
2017-12-29T08:20:07.151Z,1.43
2017-12-29T08:21:08.446Z,2.07
2017-12-29T08:22:09.725Z,2.50
2017-12-29T08:23:11.036Z,1.60
2017-12-29T08:24:12.603Z,1.43
2017-12-29T08:25:13.896Z,1.80
2017-12-29T08:26:15.202Z,1.77
2017-12-29T08:27:17.247Z,1.60
2017-12-29T08:28:18.551Z,1.80
2017-12-29T08:29:19.862Z,2.57
2017-12-29T08:30:21.164Z,2.20
2017-12-29T08:31:22.462Z,1.53
2017-12-29T08:32:23.759Z,1.50
2017-12-29T08:33:25.048Z,1.40
2017-12-29T08:34:27.110Z,1.70
2017-12-29T08:35:28.401Z,1.50
2017-12-29T08:36:29.680Z,1.10
2017-12-29T08:37:30.976Z,1.00
2017-12-29T08:38:32.260Z,1.63
2017-12-29T08:39:33.867Z,1.60
2017-12-29T08:40:35.144Z,1.57
2017-12-29T08:41:36.428Z,1.70
2017-12-29T08:42:37.725Z,1.70
2017-12-29T08:43:39.764Z,1.60
2017-12-29T08:44:41.362Z,1.40
2017-12-29T08:45:42.649Z,1.67
2017-12-29T08:46:43.938Z,1.23
2017-12-29T08:47:45.226Z,1.60
2017-12-29T08:48:46.506Z,2.40
2017-12-29T08:49:47.814Z,2.07
2017-12-29T08:50:49.858Z,2.07
2017-12-29T08:51:51.884Z,1.70
2017-12-29T08:52:53.172Z,1.93
2017-12-29T08:53:54.492Z,1.30
2017-12-29T08:54:56.808Z,1.87
2017-12-29T08:55:58.088Z,1.70
2017-12-29T08:57:00.110Z,1.50
2017-12-29T08:58:01.403Z,1.50
2017-12-29T08:59:02.716Z,1.30
2017-12-29T09:00:04.992Z,1.40
2017-12-29T09:01:06.608Z,1.53
2017-12-29T09:02:08.042Z,2.93
2017-12-29T09:03:09.484Z,3.77
2017-12-29T09:04:11.548Z,4.20
2017-12-29T09:05:14.064Z,5.13
2017-12-29T09:06:15.648Z,4.80
2017-12-29T09:07:17.032Z,4.90
2017-12-29T09:08:18.568Z,4.63
2017-12-29T09:09:20.204Z,3.50
2017-12-29T09:10:21.860Z,3.07
2017-12-29T09:11:23.172Z,3.83
2017-12-29T09:12:25.200Z,3.30
2017-12-29T09:13:26.486Z,4.40
2017-12-29T09:14:27.773Z,4.23
2017-12-29T09:15:29.376Z,3.13
2017-12-29T09:16:30.694Z,3.63
2017-12-29T09:17:31.982Z,3.83
2017-12-29T09:18:33.272Z,4.20
2017-12-29T09:19:34.588Z,4.67
2017-12-29T09:20:37.100Z,4.37
2017-12-29T09:21:38.786Z,4.33
2017-12-29T09:22:40.135Z,4.10
2017-12-29T09:23:42.188Z,3.57
2017-12-29T09:24:44.229Z,3.97
2017-12-29T09:25:46.534Z,3.53
2017-12-29T09:26:47.822Z,3.60
2017-12-29T09:27:49.103Z,3.40
2017-12-29T09:28:50.400Z,4.53
2017-12-29T09:29:52.432Z,3.83
2017-12-29T09:30:53.746Z,4.47
2017-12-29T09:31:55.036Z,4.10
2017-12-29T09:32:57.055Z,2.50
2017-12-29T09:33:58.354Z,1.80
2017-12-29T09:34:59.640Z,1.60
2017-12-29T09:36:00.950Z,1.10
2017-12-29T09:37:02.236Z,1.27
2017-12-29T09:38:04.287Z,1.30
2017-12-29T09:39:06.476Z,1.67
2017-12-29T09:40:08.126Z,1.47
2017-12-29T09:41:09.707Z,2.73
2017-12-29T09:42:11.035Z,1.90
2017-12-29T09:43:12.322Z,2.37
2017-12-29T09:44:13.935Z,2.10
2017-12-29T09:45:15.238Z,2.10
2017-12-29T09:46:16.784Z,2.33
2017-12-29T09:47:18.059Z,2.47
2017-12-29T09:48:20.080Z,2.37
2017-12-29T09:49:21.362Z,2.20
2017-12-29T09:50:22.648Z,1.57
2017-12-29T09:51:24.027Z,1.77
2017-12-29T09:52:26.040Z,2.07
2017-12-29T09:53:27.325Z,1.67
2017-12-29T09:54:28.616Z,1.63
2017-12-29T09:55:29.914Z,1.20
2017-12-29T09:56:31.354Z,1.80
2017-12-29T09:57:32.656Z,1.60
2017-12-29T09:58:34.688Z,1.87
2017-12-29T09:59:35.983Z,1.53
2017-12-29T10:00:37.286Z,1.50
2017-12-29T10:01:39.334Z,1.30
2017-12-29T10:02:41.372Z,1.20
2017-12-29T10:03:42.656Z,1.30
2017-12-29T10:04:43.940Z,1.27
2017-12-29T10:05:45.224Z,1.40
2017-12-29T10:06:46.518Z,1.30
2017-12-29T10:07:47.796Z,1.50
2017-12-29T10:08:49.086Z,1.10
2017-12-29T10:09:50.376Z,1.20
2017-12-29T10:10:51.671Z,1.40
2017-12-29T10:11:52.968Z,1.10
2017-12-29T10:12:54.250Z,1.40
2017-12-29T10:13:55.551Z,1.80
2017-12-29T10:14:56.842Z,1.87
2017-12-29T10:15:58.902Z,1.43
2017-12-29T10:17:00.200Z,1.30
2017-12-29T10:18:01.486Z,1.43
2017-12-29T10:19:02.796Z,1.30
2017-12-29T10:20:04.819Z,1.10
2017-12-29T10:21:06.134Z,1.17
2017-12-29T10:22:07.764Z,1.50
2017-12-29T10:23:09.044Z,1.80
2017-12-29T10:24:10.358Z,1.50
2017-12-29T10:25:11.648Z,1.50
2017-12-29T10:26:13.680Z,1.67
2017-12-29T10:27:15.370Z,1.60
2017-12-29T10:28:16.664Z,1.30
2017-12-29T10:29:17.958Z,1.30
2017-12-29T10:30:19.244Z,1.50
2017-12-29T10:31:21.258Z,1.10
2017-12-29T10:32:22.564Z,1.63
2017-12-29T10:33:23.874Z,1.90
2017-12-29T10:34:25.902Z,3.03
2017-12-29T10:35:27.220Z,2.97
2017-12-29T10:36:28.528Z,1.90
2017-12-29T10:37:36.888Z,1.90
2017-12-29T10:38:38.188Z,2.00
2017-12-29T10:39:39.478Z,1.40
2017-12-29T10:40:41.554Z,1.63
2017-12-29T10:41:42.852Z,1.40
2017-12-29T10:42:44.166Z,1.70
2017-12-29T10:43:45.466Z,1.30
2017-12-29T10:44:46.804Z,1.40
2017-12-29T10:45:48.080Z,1.20
2017-12-29T10:46:49.366Z,1.60
2017-12-29T10:47:50.920Z,1.63
2017-12-29T10:48:52.208Z,1.87
2017-12-29T10:49:53.507Z,1.90
2017-12-29T10:50:54.808Z,1.93
2017-12-29T10:51:56.824Z,2.23
2017-12-29T10:52:58.476Z,2.20
2017-12-29T10:53:59.792Z,2.10
2017-12-29T10:55:01.076Z,1.70
2017-12-29T10:56:03.106Z,1.67
2017-12-29T10:57:04.414Z,1.40
2017-12-29T10:58:05.728Z,1.37
2017-12-29T10:59:07.016Z,1.57
2017-12-29T11:00:08.307Z,3.23
2017-12-29T11:01:09.590Z,8.67
2017-12-29T11:02:10.904Z,11.77
2017-12-29T11:03:12.520Z,6.83
2017-12-29T11:04:13.798Z,4.80
2017-12-29T11:05:15.224Z,3.93
2017-12-29T11:06:16.526Z,3.47
2017-12-29T11:07:17.833Z,2.87
2017-12-29T11:08:20.094Z,2.70
2017-12-29T11:09:22.126Z,2.27
2017-12-29T11:10:23.412Z,2.03
2017-12-29T11:11:24.704Z,2.03
2017-12-29T11:12:25.987Z,1.77
2017-12-29T11:13:28.052Z,1.70
2017-12-29T11:14:29.335Z,1.67
2017-12-29T11:15:30.627Z,1.80
2017-12-29T11:16:31.981Z,1.50
2017-12-29T11:17:33.246Z,1.40
2017-12-29T11:18:35.554Z,1.60
2017-12-29T11:19:36.867Z,1.23
2017-12-29T11:20:38.136Z,1.30
2017-12-29T11:21:39.418Z,1.40
2017-12-29T11:22:41.442Z,1.43
2017-12-29T11:23:42.756Z,1.40
2017-12-29T11:24:44.056Z,1.57
2017-12-29T11:25:46.112Z,1.40
2017-12-29T11:26:48.154Z,1.27
2017-12-29T11:27:50.180Z,1.30
2017-12-29T11:28:51.726Z,1.20
2017-12-29T11:29:53.022Z,1.20
2017-12-29T11:30:54.308Z,1.27
2017-12-29T11:31:55.620Z,1.20
2017-12-29T11:32:56.914Z,1.10
2017-12-29T11:33:58.215Z,0.90
2017-12-29T11:34:59.502Z,1.57
2017-12-29T11:36:00.814Z,1.20
2017-12-29T11:37:02.104Z,1.10
2017-12-29T11:38:03.404Z,1.00
2017-12-29T11:39:04.716Z,1.00
2017-12-29T11:40:06.754Z,0.97
2017-12-29T11:41:08.066Z,0.83
2017-12-29T11:42:09.349Z,1.30
2017-12-29T11:43:11.408Z,1.17
2017-12-29T11:44:13.706Z,1.10
2017-12-29T11:45:15.024Z,1.27
2017-12-29T11:46:16.316Z,1.37
2017-12-29T11:47:17.613Z,1.20
2017-12-29T11:48:18.935Z,1.23
2017-12-29T11:49:20.248Z,1.40
2017-12-29T11:50:22.326Z,1.57
2017-12-29T11:51:23.663Z,2.10
2017-12-29T11:52:25.004Z,1.77
2017-12-29T11:53:26.371Z,1.23
2017-12-29T11:54:28.015Z,1.20
2017-12-29T11:55:29.382Z,1.00
2017-12-29T11:56:31.478Z,1.00
2017-12-29T11:57:32.813Z,1.10
2017-12-29T11:58:34.112Z,1.00
2017-12-29T11:59:36.520Z,0.90
2017-12-29T12:00:37.894Z,1.07
2017-12-29T12:01:39.250Z,1.10
2017-12-29T12:02:41.342Z,1.10
2017-12-29T12:03:42.693Z,1.10
2017-12-29T12:04:44.045Z,1.10
2017-12-29T12:05:45.441Z,1.00
2017-12-29T12:06:46.789Z,0.90
2017-12-29T12:07:48.125Z,0.90
2017-12-29T12:08:49.448Z,1.10
2017-12-29T12:09:51.003Z,1.00
2017-12-29T12:10:52.284Z,1.13
2017-12-29T12:11:53.614Z,0.90
2017-12-29T12:12:54.959Z,1.00
2017-12-29T12:13:56.288Z,0.97
2017-12-29T12:14:57.727Z,1.00
2017-12-29T12:15:59.071Z,1.10
2017-12-29T12:17:00.417Z,1.07
2017-12-29T12:18:01.724Z,0.83
2017-12-29T12:19:03.046Z,1.07
2017-12-29T12:20:04.370Z,1.23
2017-12-29T12:21:05.690Z,2.17
2017-12-29T12:22:07.728Z,2.30
2017-12-29T12:23:09.028Z,2.63
2017-12-29T12:24:10.333Z,2.10
2017-12-29T12:25:11.931Z,2.00
2017-12-29T12:26:13.244Z,1.80
2017-12-29T12:27:14.571Z,1.70
2017-12-29T12:28:15.902Z,1.67
2017-12-29T12:29:17.214Z,1.40
2017-12-29T12:30:19.274Z,1.20
2017-12-29T12:31:20.590Z,1.10
2017-12-29T12:32:22.647Z,1.13
2017-12-29T12:33:24.692Z,0.80
2017-12-29T12:34:25.986Z,0.90
2017-12-29T12:35:27.586Z,1.10
2017-12-29T12:36:29.676Z,1.00
2017-12-29T12:37:30.979Z,0.90
2017-12-29T12:38:33.043Z,0.90
2017-12-29T12:39:35.076Z,0.87
2017-12-29T12:40:36.679Z,0.70
2017-12-29T12:41:38.013Z,1.00
2017-12-29T12:42:39.288Z,1.13
2017-12-29T12:43:40.624Z,0.73
2017-12-29T12:44:41.953Z,1.20
2017-12-29T12:45:43.280Z,1.00
2017-12-29T12:46:44.560Z,1.10
2017-12-29T12:47:46.603Z,1.00
2017-12-29T12:48:48.646Z,1.03
2017-12-29T12:49:49.954Z,1.10
2017-12-29T12:50:51.261Z,0.93
2017-12-29T12:51:52.558Z,1.10
2017-12-29T12:52:54.599Z,1.00
2017-12-29T12:53:55.928Z,1.00
2017-12-29T12:54:57.275Z,2.37
2017-12-29T12:55:58.645Z,2.07
2017-12-29T12:57:00.670Z,2.57
2017-12-29T12:58:01.965Z,2.27
2017-12-29T12:59:03.262Z,2.60
2017-12-29T13:00:05.301Z,2.33
2017-12-29T13:01:06.608Z,2.63
2017-12-29T13:02:07.878Z,2.03
2017-12-29T13:03:09.904Z,2.40
2017-12-29T13:04:11.180Z,2.57
2017-12-29T13:05:13.196Z,2.30
2017-12-29T13:06:14.506Z,2.30
2017-12-29T13:07:15.807Z,2.33
2017-12-29T13:08:17.869Z,2.47
2017-12-29T13:09:19.197Z,2.90
2017-12-29T13:10:21.272Z,6.60
2017-12-29T13:11:22.616Z,8.03
2017-12-29T13:12:23.936Z,5.87
2017-12-29T13:13:25.256Z,4.53
2017-12-29T13:14:27.310Z,2.87
2017-12-29T13:15:29.358Z,1.97
2017-12-29T13:16:31.408Z,2.07
2017-12-29T13:17:32.720Z,1.40
2017-12-29T13:18:34.015Z,1.77
2017-12-29T13:19:35.290Z,1.57
2017-12-29T13:20:36.595Z,1.60
2017-12-29T13:21:37.932Z,1.33
2017-12-29T13:22:39.246Z,1.00
2017-12-29T13:23:41.272Z,1.13
2017-12-29T13:24:42.538Z,1.20
2017-12-29T13:25:44.576Z,1.40
2017-12-29T13:26:46.889Z,1.30
2017-12-29T13:27:48.192Z,1.30
2017-12-29T13:28:49.486Z,1.43
2017-12-29T13:29:50.782Z,1.30
2017-12-29T13:30:52.058Z,1.10
2017-12-29T13:31:53.604Z,1.30
2017-12-29T13:32:54.900Z,1.30
2017-12-29T13:33:56.203Z,1.20
2017-12-29T13:34:58.230Z,1.50
2017-12-29T13:35:59.524Z,1.50
2017-12-29T13:37:00.837Z,1.80
2017-12-29T13:38:02.870Z,1.23
2017-12-29T13:39:04.302Z,1.30